Time;durP1;ratioP1;P1;durP2;ratioP2;P2;SDS_P1;SDS_P2;PMS_P1;PMS_P2;Temp;Humidity;BMP_temperature;BMP_pressure;BME280_temperature;BME280_humidity;BME280_pressure;Samples;Min_cycle;Max_cycle;Signal;HPM_P1;HPM_P2
2023/03/29 00:02:31;;;;;;;22.27;4.13;;;13.10;99.90;;;;;;5071108;28;20398;-76
2023/03/29 00:05:02;;;;;;;17.83;4.73;;;13.10;99.90;;;;;;5059594;28;20903;-77
2023/03/29 00:07:32;;;;;;;18.52;4.50;;;13.10;99.90;;;;;;5073469;28;20422;-77
2023/03/29 00:10:00;;;;;;;18.88;4.50;;;13.10;99.90;;;;;;5058073;28;20776;-76
2023/03/29 00:12:27;;;;;;;24.88;5.03;;;13.10;99.90;;;;;;5055537;28;20415;-77
2023/03/29 00:14:57;;;;;;;22.52;4.97;;;13.10;99.90;;;;;;5069982;28;22843;-77
2023/03/29 00:17:24;;;;;;;22.00;4.57;;;13.10;99.90;;;;;;5101241;27;20995;-76
2023/03/29 00:19:50;;;;;;;17.88;4.60;;;13.10;99.90;;;;;;5072439;28;20410;-77
2023/03/29 00:22:17;;;;;;;20.42;4.75;;;13.10;99.90;;;;;;5069500;28;20994;-76
2023/03/29 00:24:46;;;;;;;27.77;5.13;;;13.00;99.90;;;;;;5068359;28;20414;-77
2023/03/29 00:27:13;;;;;;;26.25;4.65;;;13.00;99.90;;;;;;5096766;27;20759;-77
2023/03/29 00:29:39;;;;;;;18.83;4.70;;;12.90;99.90;;;;;;5067577;28;20986;-77
2023/03/29 00:32:06;;;;;;;21.73;4.55;;;12.90;99.90;;;;;;5067943;28;20420;-77
2023/03/29 00:34:34;;;;;;;22.10;4.93;;;12.80;99.90;;;;;;5082578;28;20442;-76
2023/03/29 00:37:02;;;;;;;25.52;5.20;;;12.80;99.90;;;;;;5067804;28;20474;-77
2023/03/29 00:39:30;;;;;;;21.90;4.82;;;12.80;99.90;;;;;;5072054;28;20432;-77
2023/03/29 00:42:01;;;;;;;26.20;5.55;;;12.70;99.90;;;;;;5084993;28;20406;-77
2023/03/29 00:44:55;;;;;;;25.90;5.13;;;12.70;99.90;;;;;;5065837;28;20450;-77
2023/03/29 00:47:30;;;;;;;28.57;5.13;;;12.70;99.90;;;;;;5064964;28;20415;-77
2023/03/29 00:50:07;;;;;;;26.80;5.07;;;12.70;99.90;;;;;;5068015;28;20414;-76
2023/03/29 00:52:35;;;;;;;22.98;5.25;;;12.60;99.90;;;;;;5066195;28;20553;-76
2023/03/29 00:55:10;;;;;;;25.02;5.30;;;12.60;99.90;;;;;;5077284;28;20406;-76
2023/03/29 00:57:42;;;;;;;26.33;5.70;;;12.50;99.90;;;;;;5099789;27;20460;-76
2023/03/29 01:00:17;;;;;;;28.35;5.80;;;12.50;99.90;;;;;;5073605;28;20496;-76
2023/03/29 01:02:49;;;;;;;23.30;5.50;;;12.40;99.90;;;;;;5099765;28;20810;-76
2023/03/29 01:05:39;;;;;;;29.17;5.95;;;12.40;99.90;;;;;;5072095;28;20813;-77
2023/03/29 01:08:16;;;;;;;30.48;6.03;;;12.50;99.90;;;;;;5064698;28;20412;-76
2023/03/29 01:10:52;;;;;;;30.35;5.80;;;12.40;99.90;;;;;;5069883;28;20420;-76
2023/03/29 01:13:38;;;;;;;26.50;5.47;;;12.50;99.90;;;;;;5065212;28;21084;-76
2023/03/29 01:16:06;;;;;;;26.13;5.20;;;12.50;99.90;;;;;;5070900;28;20429;-76
2023/03/29 01:18:33;;;;;;;27.10;5.72;;;12.40;99.90;;;;;;5057115;28;20408;-76
2023/03/29 01:21:33;;;;;;;26.50;5.80;;;12.40;99.90;;;;;;5065978;28;20430;-76
2023/03/29 01:24:18;;;;;;;32.20;6.25;;;12.40;99.90;;;;;;5074390;28;20425;-76
2023/03/29 01:27:11;;;;;;;29.13;5.50;;;12.40;99.90;;;;;;5067084;28;20419;-76
2023/03/29 01:29:59;;;;;;;25.60;5.00;;;12.40;99.90;;;;;;5068218;28;20501;-76
2023/03/29 01:33:05;;;;;;;30.23;5.85;;;12.30;99.90;;;;;;5064389;28;20855;-76
2023/03/29 01:35:44;;;;;;;24.88;5.88;;;12.30;99.90;;;;;;5067072;28;20437;-76
2023/03/29 01:38:23;;;;;;;27.00;5.57;;;12.30;99.90;;;;;;5066410;28;20518;-76
2023/03/29 01:40:51;;;;;;;33.08;6.25;;;12.30;99.90;;;;;;5079316;28;20442;-77
2023/03/29 01:44:00;;;;;;;23.65;5.18;;;12.30;99.90;;;;;;5066941;28;20710;-76
2023/03/29 01:46:36;;;;;;;18.75;4.40;;;12.20;99.90;;;;;;5073484;28;20419;-76
2023/03/29 01:49:40;;;;;;;29.50;5.28;;;12.00;99.90;;;;;;5078649;28;20426;-74
2023/03/29 01:52:31;;;;;;;22.38;4.53;;;11.80;99.90;;;;;;5073654;28;20422;-75
2023/03/29 01:55:11;;;;;;;28.40;4.75;;;11.40;99.90;;;;;;5075717;28;20774;-75
2023/03/29 01:57:43;;;;;;;27.42;4.90;;;11.20;99.90;;;;;;5077204;28;20422;-74
2023/03/29 02:00:18;;;;;;;26.70;5.13;;;11.10;99.90;;;;;;5080355;28;20405;-75
2023/03/29 02:02:46;;;;;;;23.90;4.72;;;11.00;99.90;;;;;;5075082;28;20446;-74
2023/03/29 02:05:15;;;;;;;23.35;4.82;;;10.90;99.90;;;;;;5065555;28;20411;-74
2023/03/29 02:07:45;;;;;;;21.95;4.43;;;10.80;99.90;;;;;;5063945;28;20970;-75
2023/03/29 02:10:13;;;;;;;23.98;4.70;;;10.90;99.90;;;;;;5081994;28;20429;-75
2023/03/29 02:12:39;;;;;;;25.77;4.75;;;10.80;99.90;;;;;;5075826;28;20419;-75
2023/03/29 02:15:13;;;;;;;27.40;5.20;;;10.80;99.90;;;;;;5058514;28;20419;-74
2023/03/29 02:17:40;;;;;;;23.73;4.82;;;10.90;99.90;;;;;;5073355;28;20591;-75
2023/03/29 02:20:37;;;;;;;28.10;5.13;;;11.00;99.90;;;;;;5075539;28;20420;-74
2023/03/29 02:23:14;;;;;;;23.10;4.43;;;11.00;99.90;;;;;;5075091;28;20493;-74
2023/03/29 02:25:44;;;;;;;22.75;4.95;;;11.10;99.90;;;;;;5080693;28;20541;-74
2023/03/29 02:28:11;;;;;;;24.48;5.15;;;11.10;99.90;;;;;;5079447;28;20418;-75
2023/03/29 02:31:03;;;;;;;33.05;5.97;;;11.00;99.90;;;;;;5078301;28;20417;-75
2023/03/29 02:34:18;;;;;;;27.23;5.18;;;10.80;99.90;;;;;;5057864;28;20407;-75
2023/03/29 02:37:05;;;;;;;23.20;4.33;;;10.80;99.90;;;;;;5098265;27;20419;-75
2023/03/29 02:39:34;;;;;;;27.60;4.55;;;10.50;99.90;;;;;;5103981;27;20995;-75
2023/03/29 02:42:03;;;;;;;21.35;4.13;;;10.30;99.90;;;;;;5073311;28;20510;-75
2023/03/29 02:44:36;;;;;;;20.20;4.10;;;10.30;99.90;;;;;;5076236;28;20425;-74
2023/03/29 02:47:15;;;;;;;19.48;3.67;;;10.20;99.90;;;;;;5073041;28;20417;-75
2023/03/29 02:49:43;;;;;;;21.05;4.50;;;10.30;99.90;;;;;;5072059;28;20557;-74
2023/03/29 02:52:19;;;;;;;22.58;4.05;;;10.40;99.90;;;;;;5072375;28;20413;-75
2023/03/29 02:54:50;;;;;;;21.48;4.22;;;10.50;99.90;;;;;;5054740;28;20422;-74
2023/03/29 02:57:16;;;;;;;18.77;3.72;;;10.40;99.90;;;;;;5078348;28;20408;-75
2023/03/29 02:59:43;;;;;;;18.88;3.85;;;10.20;99.90;;;;;;5084707;28;20507;-74
2023/03/29 03:02:10;;;;;;;17.38;3.65;;;10.10;99.90;;;;;;5073651;28;20757;-75
2023/03/29 03:04:37;;;;;;;18.88;3.63;;;10.10;99.90;;;;;;5063794;28;20404;-74
2023/03/29 03:07:04;;;;;;;20.40;3.63;;;10.10;99.90;;;;;;5076334;28;21186;-74
2023/03/29 03:09:30;;;;;;;14.63;3.55;;;10.20;99.90;;;;;;5057183;28;20403;-75
2023/03/29 03:11:56;;;;;;;16.40;3.23;;;10.10;99.90;;;;;;5071436;28;20485;-74
2023/03/29 03:14:24;;;;;;;23.80;3.72;;;10.20;99.90;;;;;;5077780;28;20477;-75
2023/03/29 03:16:54;;;;;;;17.23;3.42;;;10.20;99.90;;;;;;5076374;28;20527;-74
2023/03/29 03:19:20;;;;;;;18.08;3.67;;;10.10;99.90;;;;;;5065554;28;20408;-74
2023/03/29 03:21:49;;;;;;;21.25;3.75;;;10.10;99.90;;;;;;5077771;28;20410;-74
2023/03/29 03:24:16;;;;;;;16.08;3.83;;;10.10;99.90;;;;;;5063563;28;20452;-74
2023/03/29 03:26:45;;;;;;;18.50;3.67;;;10.10;99.90;;;;;;5078906;28;20445;-74
2023/03/29 03:29:13;;;;;;;21.50;3.50;;;10.20;99.90;;;;;;5073224;28;20423;-74
2023/03/29 03:31:40;;;;;;;20.70;3.72;;;10.20;99.90;;;;;;5076820;28;21162;-74
2023/03/29 03:34:10;;;;;;;19.92;3.95;;;10.20;99.90;;;;;;5075129;28;20439;-74
2023/03/29 03:36:36;;;;;;;18.92;4.28;;;10.20;99.90;;;;;;5071197;28;20849;-74
2023/03/29 03:39:05;;;;;;;22.77;4.63;;;10.20;99.90;;;;;;5072655;28;20407;-74
2023/03/29 03:41:33;;;;;;;21.25;4.60;;;10.20;99.90;;;;;;5076291;28;20407;-74
2023/03/29 03:44:00;;;;;;;19.83;3.97;;;10.30;99.90;;;;;;5071481;28;20437;-74
2023/03/29 03:46:26;;;;;;;26.48;4.47;;;10.30;99.90;;;;;;5074315;28;20807;-74
2023/03/29 03:48:53;;;;;;;18.95;3.65;;;10.40;99.90;;;;;;5073451;28;20745;-74
2023/03/29 03:51:19;;;;;;;21.30;4.00;;;10.40;99.90;;;;;;5056233;28;20415;-74
2023/03/29 03:53:45;;;;;;;20.60;3.92;;;10.40;99.90;;;;;;5070980;28;20795;-75
2023/03/29 03:56:12;;;;;;;20.20;3.95;;;10.30;99.90;;;;;;5078254;28;20404;-74
2023/03/29 03:58:38;;;;;;;20.25;4.03;;;10.40;99.90;;;;;;5075670;28;20403;-74
2023/03/29 04:01:07;;;;;;;20.20;3.97;;;10.40;99.90;;;;;;5072944;28;20411;-74
2023/03/29 04:03:33;;;;;;;19.63;4.20;;;10.30;99.90;;;;;;5073613;28;20515;-74
2023/03/29 04:06:02;;;;;;;19.63;3.88;;;10.40;99.90;;;;;;5072607;28;20411;-74
2023/03/29 04:08:29;;;;;;;19.00;4.27;;;10.40;99.90;;;;;;5068809;28;20783;-74
2023/03/29 04:10:58;;;;;;;21.75;3.83;;;10.40;99.90;;;;;;5068377;28;20927;-74
2023/03/29 04:13:26;;;;;;;21.25;3.80;;;10.40;99.90;;;;;;5072437;28;20418;-74
2023/03/29 04:15:54;;;;;;;20.87;4.07;;;10.40;99.90;;;;;;5071205;28;20421;-74
2023/03/29 04:18:23;;;;;;;18.67;3.75;;;10.50;99.90;;;;;;5068774;28;20423;-74
2023/03/29 04:20:50;;;;;;;14.05;3.00;;;10.40;99.90;;;;;;5104451;27;20790;-74
2023/03/29 04:23:18;;;;;;;12.88;2.88;;;10.40;99.90;;;;;;5060288;28;20432;-74
2023/03/29 04:25:44;;;;;;;13.00;2.92;;;10.50;99.90;;;;;;5072352;28;20426;-74
2023/03/29 04:28:11;;;;;;;14.85;3.35;;;10.50;99.90;;;;;;5082541;28;20562;-74
2023/03/29 04:30:37;;;;;;;14.02;3.20;;;10.50;99.90;;;;;;5074585;28;20425;-74
2023/03/29 04:33:04;;;;;;;14.13;3.30;;;10.50;99.90;;;;;;5057255;28;20475;-74
2023/03/29 04:35:31;;;;;;;16.08;3.15;;;10.50;99.90;;;;;;5071141;28;20417;-74
2023/03/29 04:37:57;;;;;;;17.30;3.13;;;10.50;99.90;;;;;;5059521;28;20411;-74
2023/03/29 04:40:24;;;;;;;15.45;2.90;;;10.60;99.90;;;;;;5077284;28;20407;-74
2023/03/29 04:42:50;;;;;;;16.17;3.17;;;10.60;99.90;;;;;;5073478;28;20408;-74
2023/03/29 04:45:17;;;;;;;20.58;3.70;;;10.60;99.90;;;;;;5075114;28;20525;-74
2023/03/29 04:47:45;;;;;;;18.05;3.45;;;10.60;99.90;;;;;;5074685;28;20912;-74
2023/03/29 04:50:12;;;;;;;18.13;3.77;;;10.60;99.90;;;;;;5071259;28;20407;-75
2023/03/29 04:52:39;;;;;;;17.23;3.35;;;10.60;99.90;;;;;;5093129;28;20422;-74
2023/03/29 04:55:07;;;;;;;14.90;3.00;;;10.60;99.90;;;;;;5073585;28;20793;-74
2023/03/29 04:57:33;;;;;;;18.58;3.08;;;10.50;99.90;;;;;;5068199;28;20420;-74
2023/03/29 05:00:00;;;;;;;13.23;2.80;;;10.50;99.90;;;;;;5089241;28;20447;-74
2023/03/29 05:02:29;;;;;;;15.05;2.78;;;10.40;99.90;;;;;;5067490;28;20409;-74
2023/03/29 05:04:55;;;;;;;14.00;2.97;;;10.40;99.90;;;;;;5069518;28;20411;-74
2023/03/29 05:07:22;;;;;;;12.93;2.88;;;10.40;99.90;;;;;;5076307;28;20419;-74
2023/03/29 05:09:48;;;;;;;11.43;2.78;;;10.40;99.90;;;;;;5071532;28;20512;-74
2023/03/29 05:12:14;;;;;;;17.27;3.33;;;10.50;99.90;;;;;;5075697;28;20427;-75
2023/03/29 05:14:41;;;;;;;14.70;2.95;;;10.40;99.90;;;;;;5067938;28;20466;-74
2023/03/29 05:17:07;;;;;;;10.52;2.50;;;10.30;99.90;;;;;;5059257;28;20435;-74
2023/03/29 05:19:35;;;;;;;10.43;2.45;;;10.30;99.90;;;;;;5074357;28;20819;-74
2023/03/29 05:22:01;;;;;;;12.60;2.45;;;10.30;99.90;;;;;;5109345;28;20430;-74
2023/03/29 05:24:27;;;;;;;14.05;2.90;;;10.40;99.90;;;;;;5094352;28;20441;-74
2023/03/29 05:26:54;;;;;;;17.70;2.83;;;10.40;99.90;;;;;;5072621;28;20414;-74
2023/03/29 05:29:20;;;;;;;16.70;3.05;;;10.40;99.90;;;;;;5078933;28;20466;-74
2023/03/29 05:31:46;;;;;;;13.17;2.90;;;10.40;99.90;;;;;;5075171;28;20464;-74
2023/03/29 05:34:12;;;;;;;16.83;3.25;;;10.40;99.90;;;;;;5076090;28;20415;-74
2023/03/29 05:36:39;;;;;;;15.63;2.95;;;10.40;99.90;;;;;;5063001;28;20416;-74
2023/03/29 05:39:06;;;;;;;16.58;3.53;;;10.40;99.90;;;;;;5105807;27;20407;-74
2023/03/29 05:41:33;;;;;;;14.52;3.47;;;10.40;99.90;;;;;;5077806;28;20399;-74
2023/03/29 05:43:59;;;;;;;17.33;3.35;;;10.40;99.90;;;;;;5074803;28;20722;-74
2023/03/29 05:46:25;;;;;;;20.70;3.80;;;10.50;99.90;;;;;;5079545;28;20413;-74
2023/03/29 05:48:52;;;;;;;14.00;3.38;;;10.50;99.90;;;;;;5077539;28;20742;-74
2023/03/29 05:51:22;;;;;;;12.05;3.03;;;10.60;99.90;;;;;;5080312;28;20412;-74
2023/03/29 05:53:52;;;;;;;15.80;3.30;;;10.60;99.90;;;;;;5059656;28;21089;-75
2023/03/29 05:56:19;;;;;;;16.60;3.58;;;10.70;99.90;;;;;;5059423;28;20418;-74
2023/03/29 05:58:45;;;;;;;17.37;3.70;;;10.70;99.90;;;;;;5080939;28;20587;-74
2023/03/29 06:01:13;;;;;;;16.50;3.38;;;10.70;99.90;;;;;;5063174;28;20553;-74
2023/03/29 06:03:44;;;;;;;14.52;2.80;;;10.50;99.90;;;;;;5075073;28;20408;-74
2023/03/29 06:06:14;;;;;;;9.93;2.92;;;10.20;99.90;;;;;;5067472;28;20409;-74
2023/03/29 06:08:40;;;;;;;14.40;3.47;;;10.00;99.90;;;;;;5078752;28;20415;-74
2023/03/29 06:11:09;;;;;;;12.70;3.05;;;10.00;99.90;;;;;;5082089;28;20561;-74
2023/03/29 06:13:40;;;;;;;14.20;2.90;;;10.00;99.90;;;;;;5057807;28;20565;-74
2023/03/29 06:16:13;;;;;;;11.50;2.90;;;10.20;99.90;;;;;;5079445;28;21155;-74
2023/03/29 06:18:40;;;;;;;12.00;2.85;;;10.30;99.90;;;;;;5092129;27;20489;-74
2023/03/29 06:21:08;;;;;;;15.70;3.40;;;10.40;99.90;;;;;;5082038;28;21021;-74
2023/03/29 06:23:35;;;;;;;18.10;3.33;;;10.50;99.90;;;;;;5075380;28;21155;-74
2023/03/29 06:26:02;;;;;;;17.37;3.33;;;10.60;99.90;;;;;;5081126;28;20416;-74
2023/03/29 06:28:28;;;;;;;16.20;3.08;;;10.70;99.90;;;;;;5084318;28;20406;-74
2023/03/29 06:31:00;;;;;;;15.38;2.85;;;10.70;99.90;;;;;;5081308;28;20407;-74
2023/03/29 06:33:29;;;;;;;11.35;2.63;;;10.70;99.90;;;;;;5077498;28;20611;-74
2023/03/29 06:35:59;;;;;;;17.20;2.90;;;10.70;99.90;;;;;;5077829;28;20406;-74
2023/03/29 06:38:29;;;;;;;18.63;4.03;;;10.80;99.90;;;;;;5078570;28;20763;-74
2023/03/29 06:41:09;;;;;;;16.50;3.77;;;10.90;99.90;;;;;;5078016;28;20439;-74
2023/03/29 06:43:36;;;;;;;16.40;3.72;;;10.90;99.90;;;;;;5079609;28;20415;-74
2023/03/29 06:46:07;;;;;;;19.42;3.70;;;10.70;99.90;;;;;;5081469;28;21045;-75
2023/03/29 06:48:35;;;;;;;16.42;2.88;;;10.60;99.90;;;;;;5083805;28;20414;-75
2023/03/29 06:51:01;;;;;;;14.10;3.00;;;10.80;99.90;;;;;;5080793;28;20425;-75
2023/03/29 06:53:27;;;;;;;12.43;3.10;;;11.00;99.90;;;;;;5073614;28;20411;-75
2023/03/29 06:55:55;;;;;;;14.25;3.33;;;11.00;99.90;;;;;;5069984;28;20406;-74
2023/03/29 06:58:21;;;;;;;15.15;3.30;;;10.90;99.90;;;;;;5093853;28;20416;-74
2023/03/29 07:00:50;;;;;;;16.05;3.35;;;10.80;99.90;;;;;;5065431;28;20479;-74
2023/03/29 07:03:22;;;;;;;16.00;3.13;;;10.80;99.90;;;;;;5085648;28;20448;-74
2023/03/29 07:05:50;;;;;;;14.15;3.30;;;10.90;99.90;;;;;;5071638;28;20406;-74
2023/03/29 07:08:19;;;;;;;15.68;3.40;;;11.00;99.90;;;;;;5065634;28;20495;-74
2023/03/29 07:10:52;;;;;;;14.40;3.53;;;11.00;99.90;;;;;;5083350;28;20406;-74
2023/03/29 07:13:18;;;;;;;16.83;3.60;;;10.90;99.90;;;;;;5079126;28;20529;-75
2023/03/29 07:15:44;;;;;;;16.55;3.45;;;10.90;99.90;;;;;;5081788;28;20551;-75
2023/03/29 07:18:11;;;;;;;16.15;3.67;;;11.00;99.90;;;;;;5085472;28;20984;-74
2023/03/29 07:20:39;;;;;;;19.58;3.60;;;11.10;99.90;;;;;;5110406;27;20402;-74
2023/03/29 07:23:08;;;;;;;17.48;3.80;;;11.30;99.90;;;;;;5080161;28;20642;-75
2023/03/29 07:25:37;;;;;;;19.33;3.83;;;11.40;99.90;;;;;;5077532;28;20402;-75
2023/03/29 07:28:05;;;;;;;18.73;3.58;;;11.50;99.90;;;;;;5076191;28;20420;-75
2023/03/29 07:30:33;;;;;;;15.90;4.00;;;11.60;99.90;;;;;;5074103;28;20979;-75
2023/03/29 07:33:00;;;;;;;15.77;3.20;;;11.60;99.90;;;;;;5089051;28;20417;-74
2023/03/29 07:35:27;;;;;;;14.70;3.42;;;11.60;99.90;;;;;;5079078;28;20467;-75
2023/03/29 07:37:58;;;;;;;19.57;3.70;;;11.60;99.90;;;;;;5073074;28;20521;-75
2023/03/29 07:40:24;;;;;;;19.17;3.97;;;11.70;99.90;;;;;;5084069;28;20415;-75
2023/03/29 07:42:57;;;;;;;16.55;3.20;;;11.80;99.90;;;;;;5093397;27;20406;-75
2023/03/29 07:45:27;;;;;;;20.15;3.80;;;11.70;99.90;;;;;;5082179;28;20881;-75
2023/03/29 07:47:56;;;;;;;20.02;3.63;;;11.80;99.90;;;;;;5083583;28;20443;-75
2023/03/29 07:50:24;;;;;;;17.13;3.70;;;11.70;99.90;;;;;;5065114;28;20420;-75
2023/03/29 07:52:52;;;;;;;15.40;3.63;;;11.70;99.90;;;;;;5062206;28;20414;-75
2023/03/29 07:55:18;;;;;;;17.83;3.72;;;11.50;99.90;;;;;;5076858;28;20416;-75
2023/03/29 07:57:45;;;;;;;16.02;3.67;;;11.50;99.90;;;;;;5076228;28;21228;-74
2023/03/29 08:00:17;;;;;;;19.25;3.58;;;11.80;99.90;;;;;;5070292;28;20856;-75
2023/03/29 08:02:51;;;;;;;15.15;3.55;;;12.00;99.90;;;;;;5073841;28;20422;-75
2023/03/29 08:05:22;;;;;;;18.88;4.15;;;11.80;99.90;;;;;;5062567;28;20431;-75
2023/03/29 08:07:49;;;;;;;19.35;3.83;;;11.70;99.90;;;;;;5072044;28;20411;-75
2023/03/29 08:10:20;;;;;;;26.95;4.50;;;11.60;99.90;;;;;;5075667;28;20569;-74
2023/03/29 08:12:49;;;;;;;20.73;4.57;;;11.50;99.90;;;;;;5079130;28;21114;-74
2023/03/29 08:15:17;;;;;;;22.17;4.97;;;11.50;99.90;;;;;;5074573;28;20436;-75
2023/03/29 08:17:43;;;;;;;27.77;4.93;;;11.60;99.90;;;;;;5077385;28;20418;-75
2023/03/29 08:20:15;;;;;;;22.73;4.80;;;11.60;99.90;;;;;;5080508;28;20507;-75
2023/03/29 08:22:43;;;;;;;24.38;5.00;;;11.60;99.90;;;;;;5077069;28;20419;-74
2023/03/29 08:25:11;;;;;;;20.75;5.28;;;11.40;99.90;;;;;;5072168;28;20410;-74
2023/03/29 08:27:38;;;;;;;20.10;5.25;;;11.20;99.90;;;;;;5081858;28;20408;-75
2023/03/29 08:30:09;;;;;;;22.00;4.50;;;11.10;99.90;;;;;;5075054;28;20416;-75
2023/03/29 08:32:38;;;;;;;24.50;4.50;;;11.10;99.90;;;;;;5061786;28;21198;-74
2023/03/29 08:35:08;;;;;;;19.90;4.38;;;11.00;99.90;;;;;;5074100;28;20403;-74
2023/03/29 08:37:36;;;;;;;25.38;4.82;;;11.00;99.90;;;;;;5071878;28;20426;-74
2023/03/29 08:40:04;;;;;;;22.98;4.53;;;11.00;99.90;;;;;;5074639;28;20410;-75
2023/03/29 08:42:53;;;;;;;18.55;4.07;;;11.20;99.90;;;;;;5064953;28;20403;-74
2023/03/29 08:45:28;;;;;;;22.13;4.38;;;11.40;99.90;;;;;;5055766;28;21048;-74
2023/03/29 08:48:28;;;;;;;16.67;3.60;;;11.50;99.90;;;;;;5059715;28;20402;-75
2023/03/29 08:51:07;;;;;;;17.42;4.07;;;11.60;99.90;;;;;;5080727;28;20415;-75
2023/03/29 08:53:52;;;;;;;22.23;4.40;;;11.70;99.90;;;;;;5076892;28;20468;-75
2023/03/29 08:56:30;;;;;;;18.33;4.30;;;11.70;99.90;;;;;;5075987;28;20757;-76
2023/03/29 08:58:58;;;;;;;13.43;3.22;;;11.70;99.90;;;;;;5072197;28;20483;-76
2023/03/29 09:01:36;;;;;;;19.48;3.20;;;11.90;99.90;;;;;;5087337;28;20394;-76
2023/03/29 09:04:21;;;;;;;18.10;3.70;;;11.90;99.90;;;;;;5076951;28;20405;-76
2023/03/29 09:06:48;;;;;;;17.57;3.80;;;12.60;99.90;;;;;;5072030;28;20772;-76
2023/03/29 09:09:20;;;;;;;14.32;3.45;;;12.70;99.90;;;;;;5069226;28;20465;-76
2023/03/29 09:12:21;;;;;;;17.35;3.10;;;13.00;99.90;;;;;;5053103;28;20412;-76
2023/03/29 09:15:14;;;;;;;14.75;3.42;;;12.70;99.90;;;;;;5067528;28;20480;-75
2023/03/29 09:18:29;;;;;;;18.42;3.60;;;12.40;99.90;;;;;;5076018;28;21130;-76
2023/03/29 09:21:21;;;;;;;18.58;3.20;;;12.20;99.90;;;;;;5087740;28;20500;-76
2023/03/29 09:24:03;;;;;;;16.17;3.40;;;12.10;99.90;;;;;;5069228;28;22399;-77
2023/03/29 09:26:47;;;;;;;20.23;3.78;;;12.60;99.90;;;;;;5068846;28;20414;-76
2023/03/29 09:29:51;;;;;;;17.25;3.63;;;12.50;99.90;;;;;;5046141;28;20527;-76
2023/03/29 09:32:50;;;;;;;14.73;3.05;;;12.20;99.90;;;;;;5069233;28;20484;-77
2023/03/29 09:35:28;;;;;;;16.38;3.35;;;12.40;99.90;;;;;;5068120;28;20498;-76
2023/03/29 09:37:56;;;;;;;13.15;3.03;;;12.30;99.90;;;;;;5070148;28;20420;-77
2023/03/29 09:40:43;;;;;;;13.85;3.20;;;12.20;99.90;;;;;;5087185;28;20412;-77
2023/03/29 09:43:14;;;;;;;18.52;3.58;;;12.00;99.90;;;;;;5058602;28;20443;-76
2023/03/29 09:45:41;;;;;;;17.77;3.50;;;11.90;99.90;;;;;;5101417;28;20475;-77
2023/03/29 09:48:18;;;;;;;15.57;3.90;;;11.80;99.90;;;;;;5073058;28;20441;-77
2023/03/29 09:50:50;;;;;;;19.23;3.60;;;11.90;99.90;;;;;;5067907;28;20444;-77
2023/03/29 09:53:19;;;;;;;18.40;4.15;;;11.80;99.90;;;;;;5074142;28;20417;-76
2023/03/29 09:55:49;;;;;;;17.80;3.10;;;11.80;99.90;;;;;;5073016;28;20405;-76
2023/03/29 09:58:26;;;;;;;18.27;3.92;;;11.70;99.90;;;;;;5086168;28;20534;-77
2023/03/29 10:00:57;;;;;;;18.00;4.03;;;11.60;99.90;;;;;;5072422;28;20493;-77
2023/03/29 10:03:28;;;;;;;18.23;3.90;;;11.60;99.90;;;;;;5076289;28;20764;-77
2023/03/29 10:06:01;;;;;;;15.32;2.92;;;11.50;99.90;;;;;;5067734;28;20401;-77
2023/03/29 10:08:40;;;;;;;14.88;3.15;;;14.10;99.90;;;;;;5074111;28;20902;-76
2023/03/29 10:11:31;;;;;;;12.60;2.97;;;14.40;99.90;;;;;;5072726;28;20464;-76
2023/03/29 10:14:16;;;;;;;16.23;3.37;;;12.70;99.90;;;;;;5098547;27;20406;-76
2023/03/29 10:16:47;;;;;;;14.37;3.20;;;12.40;99.90;;;;;;5080127;28;20475;-76
2023/03/29 10:19:34;;;;;;;15.63;3.37;;;12.80;99.90;;;;;;5074418;28;21048;-76
2023/03/29 10:22:06;;;;;;;17.25;3.53;;;12.70;99.90;;;;;;5072994;28;20404;-76
2023/03/29 10:24:35;;;;;;;18.63;3.70;;;12.20;99.90;;;;;;5076076;28;20410;-77
2023/03/29 10:27:08;;;;;;;14.55;2.80;;;12.40;99.90;;;;;;5075690;28;20402;-77
2023/03/29 10:29:41;;;;;;;14.82;3.35;;;12.60;99.90;;;;;;5080708;28;20434;-76
2023/03/29 10:32:32;;;;;;;16.90;3.45;;;12.30;99.90;;;;;;5066612;28;20420;-76
2023/03/29 10:35:13;;;;;;;15.97;3.60;;;12.40;99.90;;;;;;5102349;27;20435;-76
2023/03/29 10:37:43;;;;;;;14.85;3.30;;;13.20;99.90;;;;;;5100582;27;20964;-77
2023/03/29 10:40:32;;;;;;;13.27;3.25;;;12.40;99.90;;;;;;5075627;28;20815;-76
2023/03/29 10:43:26;;;;;;;15.07;3.40;;;12.30;99.90;;;;;;5077052;28;20437;-76
2023/03/29 10:45:56;;;;;;;20.20;3.47;;;12.40;99.90;;;;;;5076376;28;20410;-76
2023/03/29 10:48:30;;;;;;;12.82;3.17;;;12.40;99.90;;;;;;5081896;28;20418;-76
2023/03/29 10:51:02;;;;;;;13.48;3.00;;;12.00;99.90;;;;;;5063293;28;20414;-76
2023/03/29 10:53:33;;;;;;;14.55;3.05;;;11.80;99.90;;;;;;5077318;28;20466;-76
2023/03/29 10:56:12;;;;;;;13.65;3.13;;;12.20;99.90;;;;;;5102268;27;20411;-76
2023/03/29 10:59:13;;;;;;;20.20;3.40;;;12.30;99.90;;;;;;5055511;28;20868;-76
2023/03/29 11:02:13;;;;;;;15.10;3.05;;;12.00;99.90;;;;;;5075965;28;20618;-76
2023/03/29 11:04:46;;;;;;;17.17;3.55;;;11.70;99.90;;;;;;5071837;28;20506;-77
2023/03/29 11:07:34;;;;;;;16.58;3.42;;;11.60;99.90;;;;;;5081686;28;20781;-77
2023/03/29 11:10:25;;;;;;;15.35;3.13;;;11.50;99.90;;;;;;5075515;28;20402;-77
2023/03/29 11:13:26;;;;;;;12.32;2.92;;;11.50;99.90;;;;;;5111512;27;21290;-78
2023/03/29 11:16:09;;;;;;;17.13;3.50;;;11.50;99.90;;;;;;5080557;28;20467;-78
2023/03/29 11:19:05;;;;;;;19.25;3.75;;;11.50;99.90;;;;;;5077045;28;20414;-78
2023/03/29 11:21:44;;;;;;;17.80;3.38;;;11.60;99.90;;;;;;5082370;28;20412;-77
2023/03/29 11:24:26;;;;;;;21.73;4.07;;;11.40;99.90;;;;;;5075335;28;20417;-77
2023/03/29 11:27:35;;;;;;;17.85;3.70;;;11.20;99.90;;;;;;5075352;28;20483;-78
2023/03/29 11:30:43;;;;;;;15.83;2.93;;;11.10;99.90;;;;;;5074430;28;20410;-78
2023/03/29 11:33:50;;;;;;;16.45;3.17;;;11.20;99.90;;;;;;5072677;28;20593;-77
2023/03/29 11:36:52;;;;;;;21.40;3.30;;;11.20;99.90;;;;;;5055746;28;20449;-78
2023/03/29 11:40:07;;;;;;;16.13;3.22;;;11.40;99.90;;;;;;5062666;28;20437;-78
2023/03/29 11:42:42;;;;;;;21.55;3.63;;;11.40;99.90;;;;;;5071975;28;20433;-78
2023/03/29 11:45:29;;;;;;;21.98;3.35;;;11.40;99.90;;;;;;5079671;28;20517;-78
2023/03/29 11:47:59;;;;;;;18.02;3.25;;;11.60;99.90;;;;;;5081410;28;20446;-77
2023/03/29 11:51:00;;;;;;;18.02;3.80;;;11.50;99.90;;;;;;5070536;28;21006;-78
2023/03/29 11:54:02;;;;;;;18.25;3.60;;;11.40;99.90;;;;;;5057625;28;20409;-79
2023/03/29 11:56:41;;;;;;;18.00;3.50;;;11.30;99.90;;;;;;5057859;28;20409;-78
2023/03/29 11:59:57;;;;;;;16.25;3.15;;;11.20;99.90;;;;;;5071639;28;20974;-78
2023/03/29 12:02:50;;;;;;;18.40;3.53;;;11.40;99.90;;;;;;5086430;27;20405;-78
2023/03/29 12:05:30;;;;;;;20.52;4.05;;;11.80;99.90;;;;;;5074160;28;20798;-78
2023/03/29 12:08:30;;;;;;;18.93;3.73;;;11.50;99.90;;;;;;5062313;28;20468;-78
2023/03/29 12:11:13;;;;;;;16.40;3.35;;;11.40;99.90;;;;;;5071411;28;20476;-78
2023/03/29 12:13:48;;;;;;;19.70;3.65;;;11.30;99.90;;;;;;5076612;28;20481;-79
2023/03/29 12:16:22;;;;;;;23.13;4.10;;;11.20;99.90;;;;;;5073493;28;20550;-78
2023/03/29 12:18:55;;;;;;;21.00;4.10;;;11.10;99.90;;;;;;5071522;28;20438;-79
2023/03/29 12:21:26;;;;;;;13.65;3.38;;;11.20;99.90;;;;;;5069254;28;20399;-79
2023/03/29 12:23:54;;;;;;;16.92;3.63;;;11.10;99.90;;;;;;5085892;28;20403;-79
2023/03/29 12:27:02;;;;;;;20.90;4.22;;;11.00;99.90;;;;;;5082583;28;20483;-79
2023/03/29 12:29:39;;;;;;;18.92;3.53;;;11.10;99.90;;;;;;5046289;28;20413;-78
2023/03/29 12:32:43;;;;;;;17.52;4.22;;;11.40;99.90;;;;;;5072885;28;20739;-78
2023/03/29 12:36:03;;;;;;;20.43;3.60;;;11.40;99.90;;;;;;5073992;28;20414;-78
2023/03/29 12:38:32;;;;;;;23.08;3.60;;;11.40;99.90;;;;;;5050116;28;20902;-78
2023/03/29 12:41:26;;;;;;;19.67;3.45;;;11.80;99.90;;;;;;5071901;28;20587;-78
2023/03/29 12:44:02;;;;;;;19.48;3.83;;;11.50;99.90;;;;;;5075949;28;20744;-78
2023/03/29 12:46:34;;;;;;;18.43;3.60;;;11.70;99.90;;;;;;5064770;28;20404;-77
2023/03/29 12:49:20;;;;;;;16.00;3.72;;;11.60;99.90;;;;;;5070603;28;20734;-77
2023/03/29 12:51:50;;;;;;;20.45;3.75;;;11.40;99.90;;;;;;5098965;27;20907;-78
2023/03/29 12:54:23;;;;;;;15.23;3.88;;;11.20;99.90;;;;;;5056552;28;20947;-79
2023/03/29 12:57:19;;;;;;;20.25;4.65;;;11.20;99.90;;;;;;5103037;27;20876;-79
2023/03/29 12:59:48;;;;;;;19.40;4.07;;;11.40;99.90;;;;;;5080326;28;20481;-78
2023/03/29 13:02:18;;;;;;;19.35;3.70;;;11.40;99.90;;;;;;5070614;28;20417;-78
2023/03/29 13:04:59;;;;;;;17.70;4.18;;;11.20;99.90;;;;;;5104290;27;20409;-79
2023/03/29 13:07:32;;;;;;;17.52;3.80;;;11.20;99.90;;;;;;5091007;28;20411;-79
2023/03/29 13:10:07;;;;;;;14.10;3.60;;;11.20;99.90;;;;;;5071098;28;20833;-78
2023/03/29 13:12:49;;;;;;;21.55;4.18;;;11.10;99.90;;;;;;5073479;28;21121;-77
2023/03/29 13:15:26;;;;;;;15.70;3.47;;;11.10;99.90;;;;;;5073698;28;20928;-76